Terminal Aerodrome Forecast
Issued by NWS Sioux Falls, SD

Home | Current Version | Previous Version | Text Only | Print | Product List | Glossary Off
Versions: 1 2 3 4 5 6 7 8 9 10 11 12 13 14 15

690
FTUS43 KFSD 111720
TAFHON
TAF
KHON 111720Z 1118/1218 34026G35KT P6SM VCSH SCT020 OVC025
     FM112200 34020G29KT P6SM BKN035
     FM120000 35014KT P6SM SCT050
     FM120700 32006KT P6SM BKN060
     FM120900 29005KT P6SM OVC030=

USA.gov is the U.S. government's official web portal to all federal, state and local government web resources and services.